Time;durP1;ratioP1;P1;durP2;ratioP2;P2;SDS_P1;SDS_P2;PMS_P1;PMS_P2;Temp;Humidity;BMP_temperature;BMP_pressure;BME280_temperature;BME280_humidity;BME280_pressure;Samples;Min_cycle;Max_cycle;Signal;HPM_P1;HPM_P2
2022/10/13 00:01:16;;;;;;;1.55;1.40;;;;;;;11.17;65.70;101464.19;5135890;28;20069;-82
2022/10/13 00:03:48;;;;;;;0.77;0.77;;;;;;;11.13;66.38;101463.38;5159590;28;20029;-82
2022/10/13 00:06:22;;;;;;;0.52;0.52;;;;;;;11.18;65.29;101463.28;5148794;28;20038;-82
2022/10/13 00:08:53;;;;;;;0.68;0.68;;;;;;;11.23;65.30;101469.31;5162277;28;20077;-81
2022/10/13 00:11:26;;;;;;;1.45;1.35;;;;;;;11.21;65.59;101465.84;5163082;28;20094;-81
2022/10/13 00:13:59;;;;;;;1.90;1.80;;;;;;;11.19;65.46;101462.41;5168933;28;20037;-80
2022/10/13 00:16:30;;;;;;;;;;;;;;;11.17;65.84;101456.31;5149542;28;20033;-81
2022/10/13 00:19:04;;;;;;;0.55;0.55;;;;;;;11.21;65.30;101462.38;5153093;28;20005;-82
2022/10/13 00:21:35;;;;;;;1.10;0.95;;;;;;;11.16;66.21;101449.31;5177297;28;20093;-81
2022/10/13 00:24:10;;;;;;;1.27;1.17;;;;;;;11.20;66.13;101453.59;5169172;28;20034;-81
2022/10/13 00:26:41;;;;;;;0.57;0.55;;;;;;;11.20;66.03;101450.97;5137897;28;20041;-81
2022/10/13 00:29:11;;;;;;;0.40;0.40;;;;;;;11.18;65.95;101447.53;5181914;28;20023;-81
2022/10/13 00:31:42;;;;;;;0.60;0.60;;;;;;;11.16;66.60;101454.56;5156316;28;20038;-82
2022/10/13 00:34:12;;;;;;;0.65;0.65;;;;;;;11.26;65.93;101444.75;5169582;28;20052;-80
2022/10/13 00:36:44;;;;;;;1.60;1.50;;;;;;;11.22;66.31;101451.81;5169543;28;20038;-81
2022/10/13 00:39:14;;;;;;;0.65;0.65;;;;;;;11.21;68.01;101443.97;5135622;28;20437;-81
2022/10/13 00:41:45;;;;;;;0.50;0.50;;;;;;;11.26;67.50;101452.63;5156495;28;20129;-82
2022/10/13 00:44:54;;;;;;;1.95;1.33;;;;;;;11.30;68.40;101449.91;5172263;28;20116;-82
2022/10/13 00:47:29;;;;;;;0.75;0.75;;;;;;;11.39;67.33;101442.75;5155026;28;20125;-82
2022/10/13 00:50:00;;;;;;;0.70;0.70;;;;;;;11.37;67.50;101447.16;5170731;28;20506;-82
2022/10/13 00:52:35;;;;;;;0.85;0.85;;;;;;;11.39;67.42;101435.75;5162483;28;20127;-81
2022/10/13 00:55:10;;;;;;;0.93;0.88;;;;;;;11.38;66.94;101435.78;5171161;28;20041;-82
2022/10/13 00:57:45;;;;;;;2.05;0.98;;;;;;;11.51;67.10;101437.28;5151093;28;20313;-81
2022/10/13 01:00:18;;;;;;;0.52;0.52;;;;;;;11.41;67.27;101425.22;5163711;28;20052;-82
2022/10/13 01:02:49;;;;;;;3.45;1.85;;;;;;;11.42;68.43;101433.06;5187907;28;20394;-80
2022/10/13 01:05:20;;;;;;;3.75;1.42;;;;;;;11.45;67.73;101426.88;5185822;28;20042;-81
2022/10/13 01:07:51;;;;;;;0.30;0.30;;;;;;;11.48;67.21;101426.81;5159840;28;20026;-82
2022/10/13 01:10:43;;;;;;;0.55;0.55;;;;;;;11.41;68.82;101425.22;5138503;28;20062;-81
2022/10/13 01:13:36;;;;;;;0.50;0.50;;;;;;;11.40;68.47;101424.38;5156983;28;20077;-80
2022/10/13 01:16:17;;;;;;;1.13;1.07;;;;;;;11.39;67.80;101416.47;5160658;28;20046;-83
2022/10/13 01:19:16;;;;;;;1.42;1.27;;;;;;;11.45;68.49;101413.72;5151993;28;20121;-83
2022/10/13 01:22:18;;;;;;;0.80;0.80;;;;;;;11.44;68.34;101409.41;5153943;28;20230;-83
2022/10/13 01:24:51;;;;;;;0.55;0.55;;;;;;;11.52;68.04;101404.84;5155024;28;20046;-83
2022/10/13 01:27:31;;;;;;;0.88;0.88;;;;;;;11.46;67.69;101400.59;5169757;28;20045;-84
2022/10/13 01:30:08;;;;;;;1.05;0.95;;;;;;;11.43;67.39;101395.38;5173183;28;20647;-81
2022/10/13 01:32:41;;;;;;;1.85;1.05;;;;;;;11.37;68.05;101397.25;5144841;28;20041;-83
2022/10/13 01:35:17;;;;;;;;;;;;;;;11.45;67.71;101409.34;5117684;28;20046;-80
2022/10/13 01:38:03;;;;;;;0.70;0.70;;;;;;;11.43;68.88;101413.78;5131772;28;19922;-81
2022/10/13 01:40:48;;;;;;;0.45;0.45;;;;;;;11.40;68.52;101391.94;5128748;28;20112;-80
2022/10/13 01:43:22;;;;;;;0.98;0.98;;;;;;;11.39;68.39;101405.97;5144639;28;20038;-82
2022/10/13 01:45:59;;;;;;;4.00;2.25;;;;;;;11.34;68.93;101406.94;5162249;28;20046;-81
2022/10/13 01:48:31;;;;;;;1.40;1.30;;;;;;;11.38;67.76;101398.97;5142408;28;20069;-81
2022/10/13 01:51:07;;;;;;;0.93;0.93;;;;;;;11.39;67.81;101393.72;5137939;28;20062;-81
2022/10/13 01:53:40;;;;;;;1.92;1.58;;;;;;;11.40;68.51;101394.56;5159810;28;20078;-81
2022/10/13 01:56:16;;;;;;;1.08;1.08;;;;;;;11.47;68.16;101388.28;5132463;28;20110;-81
2022/10/13 01:58:51;;;;;;;1.02;0.98;;;;;;;11.46;67.69;101381.31;5162377;28;20035;-82
2022/10/13 02:01:37;;;;;;;0.45;0.45;;;;;;;11.41;68.02;101386.66;5156096;28;20259;-83
2022/10/13 02:04:49;;;;;;;0.50;0.50;;;;;;;11.44;67.92;101386.59;5145913;28;20042;-81
2022/10/13 02:07:26;;;;;;;1.50;1.40;;;;;;;11.37;68.42;101381.47;5140781;28;20062;-81
2022/10/13 02:10:22;;;;;;;0.95;0.95;;;;;;;11.42;68.70;101379.66;5138065;28;20053;-82
2022/10/13 02:12:59;;;;;;;0.47;0.47;;;;;;;11.47;67.82;101370.78;5161559;28;20622;-81
2022/10/13 02:15:36;;;;;;;1.23;1.17;;;;;;;11.45;67.80;101384.81;5132874;28;20097;-83
2022/10/13 02:18:12;;;;;;;1.52;1.42;;;;;;;11.39;68.82;101382.34;5136276;28;20053;-82
2022/10/13 02:20:44;;;;;;;1.58;1.48;;;;;;;11.45;69.43;101375.19;5142014;28;20092;-80
2022/10/13 02:23:18;;;;;;;0.55;0.55;;;;;;;11.47;67.53;101378.66;5160881;28;20038;-80
2022/10/13 02:25:50;;;;;;;1.73;1.42;;;;;;;11.47;67.92;101372.53;5160954;28;20088;-81
2022/10/13 02:28:21;;;;;;;0.75;0.75;;;;;;;11.46;67.88;101368.16;5136910;28;20037;-81
2022/10/13 02:30:52;;;;;;;2.65;1.20;;;;;;;11.44;68.22;101367.34;5160817;28;20039;-81
2022/10/13 02:33:22;;;;;;;1.33;1.23;;;;;;;11.45;67.71;101369.94;5160828;28;20080;-81
2022/10/13 02:35:53;;;;;;;0.77;0.70;;;;;;;11.49;67.90;101370.75;5140237;28;20471;-81
2022/10/13 02:38:23;;;;;;;1.40;1.23;;;;;;;11.50;67.74;101375.97;5164817;28;20041;-81
2022/10/13 02:40:54;;;;;;;1.02;1.02;;;;;;;11.54;67.97;101371.50;5147844;28;20046;-80
2022/10/13 02:43:25;;;;;;;6.80;3.03;;;;;;;11.37;69.36;101378.84;5163131;28;20376;-80
2022/10/13 02:45:55;;;;;;;1.65;1.55;;;;;;;11.40;69.09;101376.19;5124587;28;20042;-83
2022/10/13 02:48:26;;;;;;;4.40;1.95;;;;;;;11.37;69.22;101377.13;5144988;28;20034;-83
2022/10/13 02:50:56;;;;;;;0.40;0.40;;;;;;;11.41;68.56;101376.13;5152497;28;20045;-81
2022/10/13 02:53:27;;;;;;;0.57;0.57;;;;;;;11.39;69.31;101375.34;5157915;28;20030;-81
2022/10/13 02:55:57;;;;;;;0.95;0.95;;;;;;;11.45;69.20;101369.94;5158652;28;20036;-80
2022/10/13 02:58:30;;;;;;;0.82;0.82;;;;;;;11.41;68.66;101360.38;5158406;28;20026;-80
2022/10/13 03:01:10;;;;;;;0.55;0.55;;;;;;;11.40;70.91;101360.41;5174986;28;20050;-83
2022/10/13 03:03:48;;;;;;;0.85;0.85;;;;;;;11.48;69.10;101353.25;5139839;28;20034;-80
2022/10/13 03:06:23;;;;;;;10.32;1.63;;;;;;;11.44;68.70;101351.59;5140650;28;20050;-81
2022/10/13 03:08:58;;;;;;;0.68;0.68;;;;;;;11.43;69.25;101344.59;5125163;28;20294;-81
2022/10/13 03:11:30;;;;;;;1.77;1.50;;;;;;;11.44;69.09;101343.72;5115295;28;20051;-82
2022/10/13 03:14:01;;;;;;;6.22;2.83;;;;;;;11.39;69.25;101349.06;5129715;28;20710;-82
2022/10/13 03:16:34;;;;;;;1.73;1.63;;;;;;;11.37;69.06;101347.31;5106869;28;20048;-80
2022/10/13 03:19:05;;;;;;;2.08;1.35;;;;;;;11.41;68.71;101341.13;5142294;28;20058;-80
2022/10/13 03:21:38;;;;;;;0.45;0.45;;;;;;;11.40;68.82;101334.13;5112797;28;20074;-82
2022/10/13 03:24:08;;;;;;;1.90;1.53;;;;;;;11.40;68.67;101334.13;5149091;28;20038;-82
2022/10/13 03:26:39;;;;;;;0.93;0.93;;;;;;;11.41;68.38;101330.63;5159534;28;20061;-83
2022/10/13 03:29:17;;;;;;;0.55;0.55;;;;;;;11.41;68.49;101328.84;5153959;28;20069;-81
2022/10/13 03:31:48;;;;;;;0.55;0.50;;;;;;;11.40;68.62;101323.63;5141688;28;20053;-83
2022/10/13 03:34:19;;;;;;;1.48;1.38;;;;;;;11.44;69.21;101325.31;5158552;28;20122;-83
2022/10/13 03:36:50;;;;;;;3.75;1.67;;;;;;;11.38;69.22;101328.94;5143691;28;20672;-82
2022/10/13 03:39:21;;;;;;;0.50;0.50;;;;;;;11.39;68.70;101312.28;5155384;28;20030;-82
2022/10/13 03:41:52;;;;;;;0.55;0.55;;;;;;;11.40;68.72;101321.88;5162922;28;20043;-81
2022/10/13 03:44:22;;;;;;;0.63;0.63;;;;;;;11.39;68.86;101316.66;5124229;28;20033;-84
2022/10/13 03:46:53;;;;;;;3.83;2.15;;;;;;;11.41;68.72;101320.13;5138059;28;20041;-81
2022/10/13 03:49:23;;;;;;;11.65;1.85;;;;;;;11.40;68.86;101323.63;5142469;28;20042;-82
2022/10/13 03:51:55;;;;;;;0.50;0.50;;;;;;;11.40;68.87;101319.25;5147294;28;20065;-80
2022/10/13 03:54:25;;;;;;;1.00;1.00;;;;;;;11.58;68.48;101312.72;5149651;28;20034;-81
2022/10/13 03:56:56;;;;;;;0.45;0.45;;;;;;;11.44;68.98;101317.44;5163483;28;20038;-83
2022/10/13 03:59:28;;;;;;;1.40;1.30;;;;;;;11.43;68.75;101315.69;5174304;28;20031;-80
2022/10/13 04:01:58;;;;;;;1.88;1.67;;;;;;;11.43;68.44;101313.06;5135769;28;20620;-82
2022/10/13 04:04:30;;;;;;;2.20;1.75;;;;;;;11.42;68.59;101316.59;5134036;28;20027;-82
2022/10/13 04:07:00;;;;;;;0.85;0.85;;;;;;;11.42;68.42;101316.59;5125862;28;20634;-81
2022/10/13 04:09:32;;;;;;;1.65;1.55;;;;;;;11.40;68.52;101311.38;5146557;28;20037;-83
2022/10/13 04:12:03;;;;;;;1.60;1.50;;;;;;;11.38;68.73;101314.91;5169877;28;20090;-81
2022/10/13 04:14:33;;;;;;;0.63;0.63;;;;;;;11.36;69.16;101320.22;5129194;28;20035;-82
2022/10/13 04:17:04;;;;;;;0.90;0.85;;;;;;;11.30;69.87;101312.47;5166594;28;20050;-81
2022/10/13 04:19:35;;;;;;;0.50;0.50;;;;;;;11.31;69.41;101309.78;5143200;28;20694;-81
2022/10/13 04:22:05;;;;;;;0.65;0.65;;;;;;;11.36;68.55;101306.22;5137354;28;20050;-79
2022/10/13 04:24:36;;;;;;;0.57;0.57;;;;;;;11.33;68.97;101315.88;5127505;28;20117;-81
2022/10/13 04:27:06;;;;;;;0.47;0.47;;;;;;;11.36;68.96;101314.09;5135551;28;20038;-79
2022/10/13 04:29:38;;;;;;;2.92;1.85;;;;;;;11.32;68.85;101311.53;5137770;28;20022;-78
2022/10/13 04:32:09;;;;;;;0.90;0.88;;;;;;;11.29;69.16;101306.31;5154567;28;20162;-80
2022/10/13 04:34:40;;;;;;;0.85;0.85;;;;;;;11.32;68.95;101289.66;5132748;28;20026;-80
2022/10/13 04:37:11;;;;;;;0.82;0.82;;;;;;;11.33;68.76;101284.34;5146747;28;20405;-82
2022/10/13 04:39:41;;;;;;;2.40;1.15;;;;;;;11.32;69.35;101300.16;5139627;28;20030;-79
2022/10/13 04:42:12;;;;;;;0.55;0.55;;;;;;;11.29;69.04;101306.31;5111905;28;20042;-80
2022/10/13 04:44:43;;;;;;;1.08;1.00;;;;;;;11.29;69.27;101301.06;5148026;28;20032;-81
2022/10/13 04:47:18;;;;;;;3.13;1.73;;;;;;;11.32;68.85;101300.16;5122799;28;20089;-80
2022/10/13 04:49:48;;;;;;;0.85;0.85;;;;;;;11.34;68.49;101299.22;5117250;28;20109;-83
2022/10/13 04:52:20;;;;;;;0.80;0.80;;;;;;;11.33;68.74;101296.63;5141215;28;20113;-80
2022/10/13 04:54:51;;;;;;;2.45;2.25;;;;;;;11.34;68.95;101301.84;5119382;28;20041;-80
2022/10/13 04:57:22;;;;;;;1.30;1.20;;;;;;;11.34;68.87;101298.34;5155616;28;20945;-82
2022/10/13 04:59:54;;;;;;;0.68;0.68;;;;;;;11.30;68.85;101294.06;5157271;28;20042;-80
2022/10/13 05:02:24;;;;;;;1.02;1.00;;;;;;;11.30;68.78;101281.78;5151710;28;20030;-81
2022/10/13 05:04:56;;;;;;;1.90;1.05;;;;;;;11.32;68.87;101295.75;5128407;28;20042;-83
2022/10/13 05:07:29;;;;;;;0.63;0.63;;;;;;;11.30;69.27;101294.06;5150553;28;20022;-81
2022/10/13 05:09:59;;;;;;;;;;;;;;;11.33;69.00;101292.25;5150355;28;20038;-81
2022/10/13 05:12:30;;;;;;;0.52;0.52;;;;;;;11.38;68.86;101291.25;5145001;28;20294;-82
2022/10/13 05:15:00;;;;;;;1.05;1.05;;;;;;;11.38;68.48;101284.25;5131857;28;20030;-80
2022/10/13 05:17:31;;;;;;;0.93;0.93;;;;;;;11.34;68.56;101286.09;5155497;28;20036;-83
2022/10/13 05:20:02;;;;;;;0.73;0.73;;;;;;;11.34;68.64;101282.59;5172424;28;20113;-80
2022/10/13 05:22:32;;;;;;;10.82;1.85;;;;;;;11.33;68.36;101279.09;5124873;28;20138;-81
2022/10/13 05:25:04;;;;;;;1.83;1.73;;;;;;;11.34;68.22;101278.22;5150851;28;20037;-82
2022/10/13 05:27:35;;;;;;;1.17;0.70;;;;;;;11.31;68.41;101285.28;5133349;28;20049;-80
2022/10/13 05:30:10;;;;;;;0.77;0.77;;;;;;;11.32;68.45;101274.75;5122643;28;20487;-80
2022/10/13 05:32:41;;;;;;;0.40;0.40;;;;;;;11.30;68.83;101273.91;5141722;28;20044;-81
2022/10/13 05:35:12;;;;;;;3.40;2.17;;;;;;;11.27;68.79;101263.47;5157733;28;20155;-80
2022/10/13 05:37:46;;;;;;;1.00;1.00;;;;;;;11.26;68.72;101264.38;5148601;28;20038;-81
2022/10/13 05:40:16;;;;;;;;;;;;;;;11.27;68.87;101266.09;5116170;28;20043;-81
2022/10/13 05:42:53;;;;;;;0.60;0.52;;;;;;;11.26;68.68;101266.13;5122195;28;19918;-80
2022/10/13 05:45:31;;;;;;;2.78;1.90;;;;;;;11.36;68.39;101278.16;5109641;28;20081;-83
2022/10/13 05:48:04;;;;;;;2.03;1.92;;;;;;;11.34;68.41;101267.69;5118585;28;20506;-80
2022/10/13 05:50:34;;;;;;;1.73;1.58;;;;;;;11.30;68.54;101271.28;5151353;28;20042;-80
2022/10/13 05:53:05;;;;;;;1.23;1.02;;;;;;;11.27;68.54;101260.84;5136104;28;20052;-80
2022/10/13 05:55:39;;;;;;;0.73;0.73;;;;;;;11.28;68.31;101264.34;5120461;28;20035;-81
2022/10/13 05:58:12;;;;;;;0.63;0.63;;;;;;;11.31;68.49;101253.78;5137743;28;20036;-81
2022/10/13 06:00:44;;;;;;;1.38;1.27;;;;;;;11.37;68.35;101260.63;5133323;28;20057;-81
2022/10/13 06:03:18;;;;;;;0.57;0.57;;;;;;;11.28;68.91;101251.19;5137486;28;20034;-82
2022/10/13 06:05:49;;;;;;;1.20;1.13;;;;;;;11.25;68.69;101246.88;5150163;28;20267;-81
2022/10/13 06:08:22;;;;;;;0.75;0.75;;;;;;;11.27;68.75;101246.84;5149390;28;20647;-80
2022/10/13 06:10:53;;;;;;;1.90;1.25;;;;;;;11.24;68.84;101249.56;5152827;28;20042;-81
2022/10/13 06:13:26;;;;;;;1.08;1.08;;;;;;;11.39;68.57;101250.97;5152307;28;20474;-80
2022/10/13 06:15:57;;;;;;;0.85;0.85;;;;;;;11.38;69.02;101251.84;5144677;28;20545;-80
2022/10/13 06:18:28;;;;;;;1.10;1.05;;;;;;;11.40;69.02;101250.94;5138969;28;20038;-80
2022/10/13 06:21:01;;;;;;;1.40;1.30;;;;;;;11.33;68.64;101260.72;5117077;28;20042;-80
2022/10/13 06:23:34;;;;;;;0.93;0.93;;;;;;;11.39;68.63;101259.72;5123782;28;20495;-82
2022/10/13 06:26:09;;;;;;;0.40;0.40;;;;;;;11.37;68.22;101250.13;5125003;28;20050;-80
2022/10/13 06:28:42;;;;;;;0.55;0.55;;;;;;;11.29;68.39;101238.03;5157117;28;20039;-81
2022/10/13 06:31:13;;;;;;;1.02;1.02;;;;;;;11.27;68.58;101238.97;5153221;28;20069;-82
2022/10/13 06:33:46;;;;;;;0.80;0.80;;;;;;;11.29;68.76;101237.16;5129376;28;20026;-81
2022/10/13 06:36:17;;;;;;;0.75;0.75;;;;;;;11.25;68.91;101241.63;5139592;28;20130;-80
2022/10/13 06:38:51;;;;;;;2.05;1.85;;;;;;;11.24;68.78;101239.03;5168073;28;20034;-82
2022/10/13 06:41:21;;;;;;;1.40;1.30;;;;;;;11.36;70.07;101249.28;5156846;28;20506;-81
2022/10/13 06:43:51;;;;;;;1.65;1.55;;;;;;;11.30;68.99;101242.38;5143507;28;20037;-81
2022/10/13 06:46:22;;;;;;;0.95;0.95;;;;;;;11.26;69.22;101251.25;5153848;28;20042;-83
2022/10/13 06:48:52;;;;;;;1.88;1.73;;;;;;;11.26;68.86;101252.97;5159280;28;20569;-80
2022/10/13 06:51:29;;;;;;;0.80;0.80;;;;;;;11.32;68.66;101242.38;5156693;28;20049;-80
2022/10/13 06:54:02;;;;;;;;;;;;;;;11.30;68.74;101242.38;5143797;28;20034;-80
2022/10/13 06:56:33;;;;;;;2.17;1.23;;;;;;;11.27;68.83;101247.72;5135782;28;19918;-82
2022/10/13 06:59:03;;;;;;;0.60;0.60;;;;;;;11.26;68.68;101252.97;5158038;28;20042;-83
2022/10/13 07:01:34;;;;;;;1.30;1.10;;;;;;;11.28;69.15;101246.78;5142217;28;20069;-81
2022/10/13 07:04:05;;;;;;;0.50;0.50;;;;;;;11.29;68.93;101253.78;5169476;28;20058;-79
2022/10/13 07:06:37;;;;;;;1.37;1.23;;;;;;;11.31;68.88;101257.25;5147042;28;20047;-81
2022/10/13 07:09:08;;;;;;;0.45;0.43;;;;;;;11.28;69.23;101257.31;5146200;28;20039;-79
2022/10/13 07:11:39;;;;;;;1.58;1.48;;;;;;;11.28;69.87;101249.41;5135262;28;20052;-79
2022/10/13 07:14:09;;;;;;;2.28;1.88;;;;;;;11.31;69.49;101245.88;5123825;28;20554;-80
2022/10/13 07:16:40;;;;;;;1.75;1.65;;;;;;;11.33;69.44;101238.81;5118817;28;20069;-81
2022/10/13 07:19:13;;;;;;;1.30;1.23;;;;;;;11.37;68.96;101235.25;5136466;28;20034;-80
2022/10/13 07:21:44;;;;;;;1.75;1.23;;;;;;;11.39;69.19;101240.44;5138597;28;20521;-79
2022/10/13 07:24:14;;;;;;;1.48;1.30;;;;;;;11.41;69.21;101236.03;5157385;28;20035;-80
2022/10/13 07:26:45;;;;;;;0.55;0.55;;;;;;;11.40;70.06;101229.03;5153501;28;20045;-79
2022/10/13 07:29:16;;;;;;;0.47;0.47;;;;;;;11.45;69.50;101242.94;5156846;28;20034;-79
2022/10/13 07:31:47;;;;;;;0.30;0.30;;;;;;;11.48;69.52;101238.50;5078882;28;20133;-80
2022/10/13 07:34:21;;;;;;;0.65;0.65;;;;;;;11.50;69.64;101241.09;5149116;28;20125;-79
2022/10/13 07:36:51;;;;;;;0.30;0.30;;;;;;;11.55;69.99;101233.94;5149599;28;20041;-79
2022/10/13 07:39:28;;;;;;;0.80;0.80;;;;;;;11.61;70.17;101238.19;5155220;28;20046;-78
2022/10/13 07:41:59;;;;;;;0.82;0.82;;;;;;;11.64;71.34;101239.00;5152865;28;20041;-79
2022/10/13 07:44:33;;;;;;;9.35;1.45;;;;;;;11.69;71.29;101240.66;5159286;28;20022;-79
2022/10/13 07:47:07;;;;;;;0.88;0.88;;;;;;;11.76;74.00;101239.63;5176609;28;20045;-78
2022/10/13 07:49:38;;;;;;;0.98;0.98;;;;;;;11.80;73.42;101241.25;5166966;28;20018;-78
2022/10/13 07:52:14;;;;;;;1.08;1.08;;;;;;;11.80;72.64;101238.63;5172068;28;20065;-78
2022/10/13 07:54:48;;;;;;;0.50;0.50;;;;;;;11.84;73.58;101237.66;5155028;28;20068;-79
2022/10/13 07:57:28;;;;;;;0.43;0.43;;;;;;;11.89;74.34;101237.56;5162509;28;20038;-78
2022/10/13 08:00:00;;;;;;;0.52;0.52;;;;;;;11.93;74.39;101242.72;5174682;28;20030;-81
2022/10/13 08:02:34;;;;;;;0.68;0.68;;;;;;;11.96;73.62;101244.41;5139420;28;20038;-80
2022/10/13 08:05:11;;;;;;;1.80;1.70;;;;;;;12.04;73.91;101245.09;5123036;28;20038;-78
2022/10/13 08:07:42;;;;;;;18.95;2.35;;;;;;;12.15;73.43;101246.59;5163767;28;20037;-79
2022/10/13 08:10:13;;;;;;;0.57;0.57;;;;;;;12.07;73.93;101249.41;5123920;28;20575;-78
2022/10/13 08:12:43;;;;;;;2.08;1.02;;;;;;;12.08;74.51;101253.78;5122253;28;20022;-78
2022/10/13 08:15:14;;;;;;;2.92;1.50;;;;;;;12.10;73.92;101252.84;5118115;28;20586;-79
2022/10/13 08:17:45;;;;;;;0.90;0.90;;;;;;;12.10;74.10;101251.97;5147173;28;20085;-77
2022/10/13 08:20:15;;;;;;;1.13;1.02;;;;;;;12.12;74.33;101245.78;5158379;28;20058;-79
2022/10/13 08:22:46;;;;;;;1.27;1.20;;;;;;;12.15;74.33;101238.72;5151759;28;20057;-78
2022/10/13 08:25:16;;;;;;;0.50;0.50;;;;;;;12.14;74.05;101235.22;5137529;28;20054;-80
2022/10/13 08:27:50;;;;;;;0.60;0.60;;;;;;;12.20;74.01;101235.03;5145586;28;20121;-79
2022/10/13 08:30:22;;;;;;;0.50;0.50;;;;;;;12.23;74.61;101236.75;5125538;28;20121;-80
2022/10/13 08:32:52;;;;;;;0.45;0.45;;;;;;;12.24;74.20;101238.44;5135929;28;20037;-79
2022/10/13 08:35:23;;;;;;;0.55;0.55;;;;;;;12.30;73.64;101232.19;5146816;28;20046;-79
2022/10/13 08:37:53;;;;;;;0.65;0.65;;;;;;;12.35;74.74;101239.06;5149468;28;20127;-79
2022/10/13 08:40:30;;;;;;;1.38;1.33;;;;;;;12.34;74.02;101241.72;5155114;28;20125;-79
2022/10/13 08:43:22;;;;;;;1.05;0.75;;;;;;;12.35;73.95;101227.69;5158962;28;20449;-78
2022/10/13 08:46:17;;;;;;;1.55;0.73;;;;;;;12.40;73.55;101233.66;5142915;28;20066;-80
2022/10/13 08:48:48;;;;;;;1.17;1.08;;;;;;;12.56;73.95;101234.13;5148555;28;20056;-79
2022/10/13 08:51:19;;;;;;;0.82;0.82;;;;;;;12.51;74.18;101230.75;5164856;28;20046;-78
2022/10/13 08:53:51;;;;;;;0.47;0.47;;;;;;;12.55;75.32;101232.41;5157640;28;20695;-78
2022/10/13 08:56:32;;;;;;;1.60;1.45;;;;;;;12.57;74.84;101223.56;5151822;28;20042;-80
2022/10/13 08:59:13;;;;;;;0.52;0.52;;;;;;;12.65;75.12;101222.47;5130676;28;20030;-78
2022/10/13 09:01:54;;;;;;;1.45;1.15;;;;;;;12.68;74.43;101227.66;5166094;28;20619;-78
2022/10/13 09:04:35;;;;;;;1.73;1.63;;;;;;;12.73;74.24;101231.03;5165175;28;20049;-79
2022/10/13 09:07:27;;;;;;;1.00;1.00;;;;;;;12.82;74.18;101225.50;5125687;28;20234;-79
2022/10/13 09:09:57;;;;;;;5.32;1.83;;;;;;;12.89;74.97;101226.19;5158303;28;20089;-79
2022/10/13 09:12:28;;;;;;;0.63;0.63;;;;;;;12.94;74.36;101224.28;5166464;28;20026;-80
2022/10/13 09:15:03;;;;;;;1.25;1.08;;;;;;;13.04;75.05;101224.88;5184382;28;20061;-80
2022/10/13 09:17:36;;;;;;;1.70;1.60;;;;;;;13.20;74.25;101231.41;5127660;28;20117;-79
2022/10/13 09:20:28;;;;;;;0.95;0.90;;;;;;;13.18;74.10;101227.09;5167624;28;20046;-80
2022/10/13 09:23:02;;;;;;;1.98;1.85;;;;;;;13.28;74.88;101222.41;5184592;28;20465;-78
2022/10/13 09:25:41;;;;;;;1.77;1.60;;;;;;;13.37;74.74;101217.75;5143285;28;20045;-80
2022/10/13 09:28:22;;;;;;;4.82;2.67;;;;;;;13.48;74.49;101220.06;5134750;28;20026;-78
2022/10/13 09:31:14;;;;;;;2.08;1.50;;;;;;;13.53;74.32;101220.78;5116603;28;20128;-78
2022/10/13 09:34:05;;;;;;;16.35;2.67;;;;;;;13.63;73.95;101223.13;5169329;28;20441;-79
2022/10/13 09:36:55;;;;;;;0.68;0.68;;;;;;;13.73;73.68;101218.41;5136636;28;20048;-79
2022/10/13 09:39:26;;;;;;;0.55;0.55;;;;;;;13.80;73.62;101220.81;5171703;28;20084;-78
2022/10/13 09:42:24;;;;;;;3.42;1.80;;;;;;;13.88;73.00;101214.41;5150301;28;20095;-79
2022/10/13 09:44:58;;;;;;;0.40;0.40;;;;;;;13.89;72.91;101216.16;5130312;28;20116;-79
2022/10/13 09:47:31;;;;;;;7.00;1.58;;;;;;;14.00;72.70;101206.97;5150578;28;20033;-79
2022/10/13 09:50:15;;;;;;;0.40;0.40;;;;;;;14.03;72.50;101199.88;5147085;28;20037;-79
2022/10/13 09:52:46;;;;;;;;;;;;;;;14.07;72.61;101199.72;5165774;28;20552;-79
2022/10/13 09:55:27;;;;;;;;;;;;;;;14.15;71.98;101196.78;5166725;28;19929;-78
2022/10/13 09:58:22;;;;;;;;;;;;;;;14.16;72.10;101204.69;5168338;28;19918;-78
2022/10/13 10:00:56;;;;;;;;;;;;;;;14.21;72.35;101198.34;5144054;28;20780;-78
2022/10/13 10:03:29;;;;;;;;;;;;;;;14.21;72.32;101198.34;5170874;28;20049;-78
2022/10/13 10:06:01;;;;;;;;;;;;;;;14.29;72.34;101193.69;5179457;28;19928;-79
2022/10/13 10:08:50;;;;;;;;;;;;;;;14.38;71.71;101187.22;5146622;28;19917;-79
2022/10/13 10:11:28;;;;;;;;;;;;;;;14.37;71.97;101189.00;5140929;28;20605;-79
2022/10/13 10:14:01;;;;;;;;;;;;;;;14.45;71.39;101179.00;5146738;28;19914;-79
2022/10/13 10:16:51;;;;;;;;;;;;;;;14.47;71.59;101179.84;5149167;28;20004;-79
2022/10/13 10:19:29;;;;;;;;;;;;;;;14.55;70.92;101171.63;5173527;28;19937;-80
2022/10/13 10:22:20;;;;;;;;;;;;;;;14.64;70.90;101170.44;5173685;28;19921;-80
2022/10/13 10:24:56;;;;;;;;;;;;;;;14.62;70.93;101175.78;5136483;28;20370;-79
2022/10/13 10:27:26;;;;;;;;;;;;;;;14.80;69.73;101170.72;5168763;28;19980;-81
2022/10/13 10:30:17;;;;;;;;;;;;;;;14.81;69.59;101167.19;5150264;28;20028;-80
2022/10/13 10:33:03;;;;;;;;;;;;;;;14.83;69.11;101178.56;5154620;28;19921;-80
2022/10/13 10:35:52;;;;;;;;;;;;;;;14.88;68.39;101166.03;5152360;28;20326;-80
2022/10/13 10:38:32;;;;;;;;;;;;;;;14.92;68.40;101169.41;5143457;28;20025;-82
2022/10/13 10:41:15;;;;;;;;;;;;;;;14.89;68.40;101161.63;5170737;28;20236;-81
2022/10/13 10:43:49;;;;;;;;;;;;;;;15.00;67.47;101172.63;5133847;28;19918;-80
2022/10/13 10:46:22;;;;;;;;;;;;;;;15.02;67.33;101164.66;5152335;28;19945;-81
2022/10/13 10:48:55;;;;;;;;;;;;;;;14.99;67.16;101164.75;5130790;28;20412;-79
2022/10/13 10:51:38;;;;;;;;;;;;;;;14.98;67.36;101158.63;5169559;28;19929;-79
2022/10/13 10:54:08;;;;;;;;;;;;;;;14.99;67.34;101163.00;5168033;28;19940;-80
2022/10/13 10:56:48;;;;;;;;;;;;;;;15.08;66.92;101149.41;5136167;28;19918;-80
2022/10/13 10:59:39;;;;;;;;;;;;;;;15.12;67.34;101155.44;5163787;28;19956;-80
2022/10/13 11:02:09;;;;;;;;;;;;;;;15.10;67.32;101152.84;5152311;28;19921;-81
2022/10/13 11:04:39;;;;;;;;;;;;;;;15.11;67.08;101159.84;5138701;28;19917;-81
2022/10/13 11:07:22;;;;;;;;;;;;;;;15.13;67.54;101159.78;5155264;28;20013;-80
2022/10/13 11:09:56;;;;;;;;;;;;;;;15.10;67.02;101158.13;5121536;28;20477;-82
2022/10/13 11:12:45;;;;;;;;;;;;;;;15.08;66.63;101153.84;5173832;28;19964;-82
2022/10/13 11:15:36;;;;;;;;;;;;;;;15.11;67.33;101154.56;5136616;28;19918;-80
2022/10/13 11:18:39;;;;;;;;;;;;;;;15.09;67.10;101156.41;5147906;28;19918;-82
2022/10/13 11:21:09;;;;;;;;;;;;;;;15.05;67.76;101157.47;5075880;28;20012;-82
2022/10/13 11:23:45;;;;;;;;;;;;;;;14.99;68.79;101170.91;5127034;28;20334;-81
2022/10/13 11:26:24;;;;;;;;;;;;;;;15.01;69.56;101158.50;5156426;28;20555;-82
2022/10/13 11:28:55;;;;;;;;;;;;;;;14.90;69.99;101153.63;5147684;28;20004;-82
2022/10/13 11:31:31;;;;;;;;;;;;;;;14.91;70.30;101157.16;5150621;28;20198;-81
2022/10/13 11:34:02;;;;;;;;;;;;;;;14.90;70.65;101160.69;5165063;28;19967;-82
2022/10/13 11:36:45;;;;;;;;;;;;;;;14.95;70.63;101154.31;5126070;28;20407;-83
2022/10/13 11:39:28;;;;;;;;;;;;;;;14.99;70.46;101149.78;5143551;28;20004;-83
2022/10/13 11:42:10;;;;;;;;;;;;;;;15.01;70.58;101147.06;5167095;28;20043;-82
2022/10/13 11:44:53;;;;;;;;;;;;;;;14.97;71.53;101135.75;5175585;28;19913;-83
2022/10/13 11:47:44;;;;;;;;;;;;;;;15.01;71.09;101125.94;5182241;28;19917;-82
2022/10/13 11:50:17;;;;;;;;;;;;;;;14.97;71.33;101135.75;5161105;28;20003;-82
2022/10/13 11:52:51;;;;;;;;;;;;;;;14.95;71.06;101127.91;5150834;28;20404;-80
2022/10/13 11:55:41;;;;;;;;;;;;;;;15.00;71.26;101132.13;5161884;28;20011;-79
2022/10/13 11:58:22;;;;;;;;;;;;;;;15.00;71.72;101126.84;5184143;28;19919;-79
2022/10/13 12:00:53;;;;;;;;;;;;;;;15.00;72.11;101126.84;5179013;28;19913;-81
2022/10/13 12:03:53;;;;;;;;;;;;;;;14.96;72.59;101134.03;5170255;28;19929;-79
2022/10/13 12:06:35;;;;;;;;;;;;;;;15.05;73.64;101122.22;5163684;28;19936;-79
2022/10/13 12:09:14;;;;;;;;;;;;;;;15.01;72.87;101115.38;5165762;28;19936;-79
2022/10/13 12:11:45;;;;;;;;;;;;;;;15.06;73.53;101119.56;5175847;28;19921;-79
2022/10/13 12:14:19;;;;;;;;;;;;;;;15.11;73.40;101120.22;5166337;28;19971;-79
2022/10/13 12:17:12;;;;;;;;;;;;;;;15.11;73.81;101112.28;5143398;28;20557;-81